sensor_id;sensor_type;location;lat;lon;timestamp;temperature;humidity
51922;DHT22;37948;53.260;6.394;2022-07-10T00:02:05;14.60;99.90
51922;DHT22;37948;53.260;6.394;2022-07-10T00:04:31;14.60;99.90
51922;DHT22;37948;53.260;6.394;2022-07-10T00:06:59;14.60;99.90
51922;DHT22;37948;53.260;6.394;2022-07-10T00:09:27;14.70;99.90
51922;DHT22;37948;53.260;6.394;2022-07-10T00:11:53;14.70;99.90
51922;DHT22;37948;53.260;6.394;2022-07-10T00:14:19;14.60;99.90
51922;DHT22;37948;53.260;6.394;2022-07-10T00:16:45;14.60;99.90
51922;DHT22;37948;53.260;6.394;2022-07-10T00:19:11;14.60;99.90
51922;DHT22;37948;53.260;6.394;2022-07-10T00:21:36;14.60;99.90
51922;DHT22;37948;53.260;6.394;2022-07-10T00:24:02;14.60;99.90
51922;DHT22;37948;53.260;6.394;2022-07-10T00:26:28;14.50;99.90
51922;DHT22;37948;53.260;6.394;2022-07-10T00:28:53;14.50;99.90
51922;DHT22;37948;53.260;6.394;2022-07-10T00:31:20;14.50;99.90
51922;DHT22;37948;53.260;6.394;2022-07-10T00:33:46;14.50;99.90
51922;DHT22;37948;53.260;6.394;2022-07-10T00:36:11;14.50;99.90
51922;DHT22;37948;53.260;6.394;2022-07-10T00:38:37;14.50;99.90
51922;DHT22;37948;53.260;6.394;2022-07-10T00:41:03;14.50;99.90
51922;DHT22;37948;53.260;6.394;2022-07-10T00:43:28;14.50;99.90
51922;DHT22;37948;53.260;6.394;2022-07-10T00:45:54;14.50;99.90
51922;DHT22;37948;53.260;6.394;2022-07-10T00:48:19;14.50;99.90
51922;DHT22;37948;53.260;6.394;2022-07-10T00:50:45;14.50;99.90
51922;DHT22;37948;53.260;6.394;2022-07-10T00:53:13;14.50;99.90
51922;DHT22;37948;53.260;6.394;2022-07-10T00:55:39;14.50;99.90
51922;DHT22;37948;53.260;6.394;2022-07-10T00:58:10;14.50;99.90
51922;DHT22;37948;53.260;6.394;2022-07-10T01:00:36;14.40;99.90
51922;DHT22;37948;53.260;6.394;2022-07-10T01:03:03;14.40;99.90
51922;DHT22;37948;53.260;6.394;2022-07-10T01:05:29;14.30;99.90
51922;DHT22;37948;53.260;6.394;2022-07-10T01:07:54;14.30;99.90
51922;DHT22;37948;53.260;6.394;2022-07-10T01:10:20;14.30;99.90
51922;DHT22;37948;53.260;6.394;2022-07-10T01:12:46;14.20;99.90
51922;DHT22;37948;53.260;6.394;2022-07-10T01:15:12;14.10;99.90
51922;DHT22;37948;53.260;6.394;2022-07-10T01:17:37;14.10;99.90
51922;DHT22;37948;53.260;6.394;2022-07-10T01:20:07;14.10;99.90
51922;DHT22;37948;53.260;6.394;2022-07-10T01:22:33;14.10;99.90
51922;DHT22;37948;53.260;6.394;2022-07-10T01:24:59;14.00;99.90
51922;DHT22;37948;53.260;6.394;2022-07-10T01:27:25;14.00;99.90
51922;DHT22;37948;53.260;6.394;2022-07-10T01:29:50;13.90;99.90
51922;DHT22;37948;53.260;6.394;2022-07-10T01:32:18;13.90;99.90
51922;DHT22;37948;53.260;6.394;2022-07-10T01:34:44;13.80;99.90
51922;DHT22;37948;53.260;6.394;2022-07-10T01:37:10;13.80;99.90
51922;DHT22;37948;53.260;6.394;2022-07-10T01:39:36;13.80;99.90
51922;DHT22;37948;53.260;6.394;2022-07-10T01:42:02;13.80;99.90
51922;DHT22;37948;53.260;6.394;2022-07-10T01:44:27;13.80;99.90
51922;DHT22;37948;53.260;6.394;2022-07-10T01:46:53;13.80;99.90
51922;DHT22;37948;53.260;6.394;2022-07-10T01:49:18;13.80;99.90
51922;DHT22;37948;53.260;6.394;2022-07-10T01:51:44;13.80;99.90
51922;DHT22;37948;53.260;6.394;2022-07-10T01:54:09;13.80;99.90
51922;DHT22;37948;53.260;6.394;2022-07-10T01:56:35;13.80;99.90
51922;DHT22;37948;53.260;6.394;2022-07-10T01:59:01;13.70;99.90
51922;DHT22;37948;53.260;6.394;2022-07-10T02:01:28;13.70;99.90
51922;DHT22;37948;53.260;6.394;2022-07-10T02:03:54;13.80;99.90
51922;DHT22;37948;53.260;6.394;2022-07-10T02:06:38;13.70;99.90
51922;DHT22;37948;53.260;6.394;2022-07-10T02:09:04;13.70;99.90
51922;DHT22;37948;53.260;6.394;2022-07-10T02:11:29;13.70;99.90
51922;DHT22;37948;53.260;6.394;2022-07-10T02:13:55;13.70;99.90
51922;DHT22;37948;53.260;6.394;2022-07-10T02:16:20;13.80;99.90
51922;DHT22;37948;53.260;6.394;2022-07-10T02:18:46;13.80;99.90
51922;DHT22;37948;53.260;6.394;2022-07-10T02:21:11;13.80;99.90
51922;DHT22;37948;53.260;6.394;2022-07-10T02:23:37;13.80;99.90
51922;DHT22;37948;53.260;6.394;2022-07-10T02:26:04;13.90;99.90
51922;DHT22;37948;53.260;6.394;2022-07-10T02:28:30;13.90;99.90
51922;DHT22;37948;53.260;6.394;2022-07-10T02:30:55;13.90;99.90
51922;DHT22;37948;53.260;6.394;2022-07-10T02:33:21;13.90;99.90
51922;DHT22;37948;53.260;6.394;2022-07-10T02:35:47;13.90;99.90
51922;DHT22;37948;53.260;6.394;2022-07-10T02:38:12;14.00;99.90
51922;DHT22;37948;53.260;6.394;2022-07-10T02:40:38;14.00;99.90
51922;DHT22;37948;53.260;6.394;2022-07-10T02:43:03;14.00;99.90
51922;DHT22;37948;53.260;6.394;2022-07-10T02:45:29;14.00;99.90
51922;DHT22;37948;53.260;6.394;2022-07-10T02:47:54;14.00;99.90
51922;DHT22;37948;53.260;6.394;2022-07-10T02:50:20;14.00;99.90
51922;DHT22;37948;53.260;6.394;2022-07-10T02:52:45;14.10;99.90
51922;DHT22;37948;53.260;6.394;2022-07-10T02:55:11;14.10;99.90
51922;DHT22;37948;53.260;6.394;2022-07-10T02:57:36;14.10;99.90
51922;DHT22;37948;53.260;6.394;2022-07-10T03:00:03;14.10;99.90
51922;DHT22;37948;53.260;6.394;2022-07-10T03:02:28;14.10;99.90
51922;DHT22;37948;53.260;6.394;2022-07-10T03:04:54;14.10;99.90
51922;DHT22;37948;53.260;6.394;2022-07-10T03:07:19;14.20;99.90
51922;DHT22;37948;53.260;6.394;2022-07-10T03:09:45;14.20;99.90
51922;DHT22;37948;53.260;6.394;2022-07-10T03:12:10;14.30;99.90
51922;DHT22;37948;53.260;6.394;2022-07-10T03:14:36;14.30;99.90
51922;DHT22;37948;53.260;6.394;2022-07-10T03:17:02;14.30;99.90
51922;DHT22;37948;53.260;6.394;2022-07-10T03:19:27;14.30;99.90
51922;DHT22;37948;53.260;6.394;2022-07-10T03:21:53;14.40;99.90
51922;DHT22;37948;53.260;6.394;2022-07-10T03:24:19;14.40;99.90
51922;DHT22;37948;53.260;6.394;2022-07-10T03:26:44;14.40;99.90
51922;DHT22;37948;53.260;6.394;2022-07-10T03:29:10;14.50;99.90
51922;DHT22;37948;53.260;6.394;2022-07-10T03:31:36;14.50;99.90
51922;DHT22;37948;53.260;6.394;2022-07-10T03:34:01;14.50;99.90
51922;DHT22;37948;53.260;6.394;2022-07-10T03:36:27;14.50;99.90
51922;DHT22;37948;53.260;6.394;2022-07-10T03:38:53;14.60;99.90
51922;DHT22;37948;53.260;6.394;2022-07-10T03:41:18;14.60;99.90
51922;DHT22;37948;53.260;6.394;2022-07-10T03:43:44;14.60;99.90
51922;DHT22;37948;53.260;6.394;2022-07-10T03:46:09;14.60;99.90
51922;DHT22;37948;53.260;6.394;2022-07-10T03:48:35;14.60;99.90
51922;DHT22;37948;53.260;6.394;2022-07-10T03:51:01;14.70;99.90
51922;DHT22;37948;53.260;6.394;2022-07-10T03:53:26;14.70;99.90
51922;DHT22;37948;53.260;6.394;2022-07-10T03:55:52;14.70;99.90
51922;DHT22;37948;53.260;6.394;2022-07-10T03:58:19;14.60;99.90
51922;DHT22;37948;53.260;6.394;2022-07-10T04:00:45;14.70;99.90
51922;DHT22;37948;53.260;6.394;2022-07-10T04:03:11;14.70;99.90
51922;DHT22;37948;53.260;6.394;2022-07-10T04:05:38;14.60;99.90
51922;DHT22;37948;53.260;6.394;2022-07-10T04:08:04;14.60;99.90
51922;DHT22;37948;53.260;6.394;2022-07-10T04:10:30;14.60;99.90
51922;DHT22;37948;53.260;6.394;2022-07-10T04:12:59;14.60;99.90
51922;DHT22;37948;53.260;6.394;2022-07-10T04:15:25;14.60;99.90
51922;DHT22;37948;53.260;6.394;2022-07-10T04:17:51;14.70;99.90
51922;DHT22;37948;53.260;6.394;2022-07-10T04:20:18;14.70;99.90
51922;DHT22;37948;53.260;6.394;2022-07-10T04:22:44;14.70;99.90
51922;DHT22;37948;53.260;6.394;2022-07-10T04:25:10;14.70;99.90
51922;DHT22;37948;53.260;6.394;2022-07-10T04:27:36;14.80;99.90
51922;DHT22;37948;53.260;6.394;2022-07-10T04:30:03;14.80;99.90
51922;DHT22;37948;53.260;6.394;2022-07-10T04:32:29;14.80;99.90
51922;DHT22;37948;53.260;6.394;2022-07-10T04:34:55;14.90;99.90
51922;DHT22;37948;53.260;6.394;2022-07-10T04:37:21;14.90;99.90
51922;DHT22;37948;53.260;6.394;2022-07-10T04:39:46;14.90;99.90
51922;DHT22;37948;53.260;6.394;2022-07-10T04:42:12;14.90;99.90
51922;DHT22;37948;53.260;6.394;2022-07-10T04:44:37;14.90;99.90
51922;DHT22;37948;53.260;6.394;2022-07-10T04:47:04;14.90;99.90
51922;DHT22;37948;53.260;6.394;2022-07-10T04:49:31;14.90;99.90
51922;DHT22;37948;53.260;6.394;2022-07-10T04:51:56;14.90;99.90
51922;DHT22;37948;53.260;6.394;2022-07-10T04:54:22;14.90;99.90
51922;DHT22;37948;53.260;6.394;2022-07-10T04:56:48;15.00;99.90
51922;DHT22;37948;53.260;6.394;2022-07-10T04:59:14;14.90;99.90
51922;DHT22;37948;53.260;6.394;2022-07-10T05:01:39;15.00;99.90
51922;DHT22;37948;53.260;6.394;2022-07-10T05:04:05;15.00;99.90
51922;DHT22;37948;53.260;6.394;2022-07-10T05:06:31;15.00;99.90
51922;DHT22;37948;53.260;6.394;2022-07-10T05:08:57;15.00;99.90
51922;DHT22;37948;53.260;6.394;2022-07-10T05:11:23;15.00;99.90
51922;DHT22;37948;53.260;6.394;2022-07-10T05:13:49;15.00;99.90
51922;DHT22;37948;53.260;6.394;2022-07-10T05:16:15;15.00;99.90
51922;DHT22;37948;53.260;6.394;2022-07-10T05:18:41;15.00;99.90
51922;DHT22;37948;53.260;6.394;2022-07-10T05:21:07;15.10;99.90
51922;DHT22;37948;53.260;6.394;2022-07-10T05:23:33;15.10;99.90
51922;DHT22;37948;53.260;6.394;2022-07-10T05:25:59;15.10;99.90
51922;DHT22;37948;53.260;6.394;2022-07-10T05:28:25;15.10;99.90
51922;DHT22;37948;53.260;6.394;2022-07-10T05:30:51;15.10;99.90
51922;DHT22;37948;53.260;6.394;2022-07-10T05:33:16;15.20;99.90
51922;DHT22;37948;53.260;6.394;2022-07-10T05:35:42;15.20;99.90
51922;DHT22;37948;53.260;6.394;2022-07-10T05:38:08;15.20;99.90
51922;DHT22;37948;53.260;6.394;2022-07-10T05:40:34;15.20;99.90
51922;DHT22;37948;53.260;6.394;2022-07-10T05:42:59;15.20;99.90
51922;DHT22;37948;53.260;6.394;2022-07-10T05:45:25;15.20;99.90
51922;DHT22;37948;53.260;6.394;2022-07-10T05:47:51;15.20;99.90
51922;DHT22;37948;53.260;6.394;2022-07-10T05:50:16;15.20;99.90
51922;DHT22;37948;53.260;6.394;2022-07-10T05:52:42;15.20;99.90
51922;DHT22;37948;53.260;6.394;2022-07-10T05:55:08;15.10;99.90
51922;DHT22;37948;53.260;6.394;2022-07-10T05:57:34;15.10;99.90
51922;DHT22;37948;53.260;6.394;2022-07-10T06:00:00;15.10;99.90
51922;DHT22;37948;53.260;6.394;2022-07-10T06:02:26;15.10;99.90
51922;DHT22;37948;53.260;6.394;2022-07-10T06:04:52;15.00;99.90
51922;DHT22;37948;53.260;6.394;2022-07-10T06:07:18;15.10;99.90
51922;DHT22;37948;53.260;6.394;2022-07-10T06:09:44;15.10;99.90
51922;DHT22;37948;53.260;6.394;2022-07-10T06:12:09;15.20;99.90
51922;DHT22;37948;53.260;6.394;2022-07-10T06:14:35;15.20;99.90
51922;DHT22;37948;53.260;6.394;2022-07-10T06:17:01;15.30;99.90
51922;DHT22;37948;53.260;6.394;2022-07-10T06:19:27;15.30;99.90
51922;DHT22;37948;53.260;6.394;2022-07-10T06:21:52;15.30;99.90
51922;DHT22;37948;53.260;6.394;2022-07-10T06:24:38;15.40;99.90
51922;DHT22;37948;53.260;6.394;2022-07-10T06:27:04;15.40;99.90
51922;DHT22;37948;53.260;6.394;2022-07-10T06:29:30;15.40;99.90
51922;DHT22;37948;53.260;6.394;2022-07-10T06:31:56;15.40;99.90
51922;DHT22;37948;53.260;6.394;2022-07-10T06:34:22;15.50;99.90
51922;DHT22;37948;53.260;6.394;2022-07-10T06:36:47;15.60;99.90
51922;DHT22;37948;53.260;6.394;2022-07-10T06:39:13;15.60;99.90
51922;DHT22;37948;53.260;6.394;2022-07-10T06:41:38;15.60;99.90
51922;DHT22;37948;53.260;6.394;2022-07-10T06:44:04;15.70;99.90
51922;DHT22;37948;53.260;6.394;2022-07-10T06:46:30;15.70;99.90
51922;DHT22;37948;53.260;6.394;2022-07-10T06:48:56;15.80;99.90
51922;DHT22;37948;53.260;6.394;2022-07-10T06:51:22;15.80;99.90
51922;DHT22;37948;53.260;6.394;2022-07-10T06:53:47;15.80;99.90
51922;DHT22;37948;53.260;6.394;2022-07-10T06:56:13;15.70;99.90
51922;DHT22;37948;53.260;6.394;2022-07-10T06:58:41;15.60;99.90
51922;DHT22;37948;53.260;6.394;2022-07-10T07:01:07;15.50;99.90
51922;DHT22;37948;53.260;6.394;2022-07-10T07:03:32;15.40;99.90
51922;DHT22;37948;53.260;6.394;2022-07-10T07:05:58;15.30;99.90
51922;DHT22;37948;53.260;6.394;2022-07-10T07:08:23;15.30;99.90
51922;DHT22;37948;53.260;6.394;2022-07-10T07:10:49;15.30;99.90
51922;DHT22;37948;53.260;6.394;2022-07-10T07:13:14;15.20;99.90
51922;DHT22;37948;53.260;6.394;2022-07-10T07:15:40;15.20;99.90
51922;DHT22;37948;53.260;6.394;2022-07-10T07:18:11;15.30;99.90
51922;DHT22;37948;53.260;6.394;2022-07-10T07:20:38;15.20;99.90
51922;DHT22;37948;53.260;6.394;2022-07-10T07:23:23;15.20;99.90
51922;DHT22;37948;53.260;6.394;2022-07-10T07:25:49;15.20;99.90
51922;DHT22;37948;53.260;6.394;2022-07-10T07:28:15;15.20;99.90
51922;DHT22;37948;53.260;6.394;2022-07-10T07:30:41;15.20;99.90
51922;DHT22;37948;53.260;6.394;2022-07-10T07:33:07;15.30;99.90
51922;DHT22;37948;53.260;6.394;2022-07-10T07:35:33;15.30;99.90
51922;DHT22;37948;53.260;6.394;2022-07-10T07:37:58;15.40;99.90
51922;DHT22;37948;53.260;6.394;2022-07-10T07:40:26;15.50;99.90
51922;DHT22;37948;53.260;6.394;2022-07-10T07:42:52;15.50;99.90
51922;DHT22;37948;53.260;6.394;2022-07-10T07:45:22;15.60;99.90
51922;DHT22;37948;53.260;6.394;2022-07-10T07:47:55;15.60;99.90
51922;DHT22;37948;53.260;6.394;2022-07-10T07:50:23;15.70;99.90
51922;DHT22;37948;53.260;6.394;2022-07-10T07:52:49;15.80;99.90
51922;DHT22;37948;53.260;6.394;2022-07-10T07:55:16;15.80;99.90
51922;DHT22;37948;53.260;6.394;2022-07-10T07:57:43;15.90;99.90
51922;DHT22;37948;53.260;6.394;2022-07-10T08:00:10;15.90;99.90
51922;DHT22;37948;53.260;6.394;2022-07-10T08:02:36;15.90;99.90
51922;DHT22;37948;53.260;6.394;2022-07-10T08:05:03;15.90;99.90
51922;DHT22;37948;53.260;6.394;2022-07-10T08:07:44;15.90;99.90
51922;DHT22;37948;53.260;6.394;2022-07-10T08:10:12;15.90;99.90
51922;DHT22;37948;53.260;6.394;2022-07-10T08:12:39;15.90;99.90
51922;DHT22;37948;53.260;6.394;2022-07-10T08:15:10;15.90;99.90
51922;DHT22;37948;53.260;6.394;2022-07-10T08:17:36;15.90;99.90
51922;DHT22;37948;53.260;6.394;2022-07-10T08:20:06;15.80;99.90
51922;DHT22;37948;53.260;6.394;2022-07-10T08:22:33;15.80;99.90
51922;DHT22;37948;53.260;6.394;2022-07-10T08:24:59;15.80;99.90
51922;DHT22;37948;53.260;6.394;2022-07-10T08:27:25;15.80;99.90
51922;DHT22;37948;53.260;6.394;2022-07-10T08:29:51;15.80;99.90
51922;DHT22;37948;53.260;6.394;2022-07-10T08:32:16;15.80;99.90
51922;DHT22;37948;53.260;6.394;2022-07-10T08:34:42;15.80;99.90
51922;DHT22;37948;53.260;6.394;2022-07-10T08:37:07;15.80;99.90
51922;DHT22;37948;53.260;6.394;2022-07-10T08:39:33;15.80;99.90
51922;DHT22;37948;53.260;6.394;2022-07-10T08:41:59;15.80;99.90
51922;DHT22;37948;53.260;6.394;2022-07-10T08:44:26;15.80;99.90
51922;DHT22;37948;53.260;6.394;2022-07-10T08:46:51;15.80;99.90
51922;DHT22;37948;53.260;6.394;2022-07-10T08:49:17;15.90;99.90
51922;DHT22;37948;53.260;6.394;2022-07-10T08:52:06;15.90;99.90
51922;DHT22;37948;53.260;6.394;2022-07-10T08:54:34;15.90;99.90
51922;DHT22;37948;53.260;6.394;2022-07-10T08:57:03;15.90;99.90
51922;DHT22;37948;53.260;6.394;2022-07-10T08:59:29;15.80;99.90
51922;DHT22;37948;53.260;6.394;2022-07-10T09:01:55;15.80;99.90
51922;DHT22;37948;53.260;6.394;2022-07-10T09:04:25;15.70;99.90
51922;DHT22;37948;53.260;6.394;2022-07-10T09:06:52;15.60;99.90
51922;DHT22;37948;53.260;6.394;2022-07-10T09:09:19;15.60;99.90
51922;DHT22;37948;53.260;6.394;2022-07-10T09:11:45;15.50;99.90
51922;DHT22;37948;53.260;6.394;2022-07-10T09:14:15;15.40;99.90
51922;DHT22;37948;53.260;6.394;2022-07-10T09:16:44;15.30;99.90
51922;DHT22;37948;53.260;6.394;2022-07-10T09:19:17;15.30;99.90
51922;DHT22;37948;53.260;6.394;2022-07-10T09:21:44;15.20;99.90
51922;DHT22;37948;53.260;6.394;2022-07-10T09:24:10;15.20;99.90
51922;DHT22;37948;53.260;6.394;2022-07-10T09:26:37;15.20;99.90
51922;DHT22;37948;53.260;6.394;2022-07-10T09:32:08;15.20;99.90
51922;DHT22;37948;53.260;6.394;2022-07-10T09:34:42;15.20;99.90
51922;DHT22;37948;53.260;6.394;2022-07-10T09:37:20;15.30;99.90
51922;DHT22;37948;53.260;6.394;2022-07-10T09:40:05;15.30;99.90
51922;DHT22;37948;53.260;6.394;2022-07-10T09:42:42;15.40;99.90
51922;DHT22;37948;53.260;6.394;2022-07-10T09:47:53;15.40;99.90
51922;DHT22;37948;53.260;6.394;2022-07-10T09:50:26;15.40;99.90
51922;DHT22;37948;53.260;6.394;2022-07-10T09:53:01;15.40;99.90
51922;DHT22;37948;53.260;6.394;2022-07-10T09:55:31;15.40;99.90
51922;DHT22;37948;53.260;6.394;2022-07-10T09:58:05;15.50;99.90
51922;DHT22;37948;53.260;6.394;2022-07-10T10:00:39;15.50;99.90
51922;DHT22;37948;53.260;6.394;2022-07-10T10:03:11;15.50;99.90
51922;DHT22;37948;53.260;6.394;2022-07-10T10:05:39;15.60;99.90
51922;DHT22;37948;53.260;6.394;2022-07-10T10:08:18;15.60;99.90
51922;DHT22;37948;53.260;6.394;2022-07-10T10:10:49;15.60;99.90
51922;DHT22;37948;53.260;6.394;2022-07-10T10:13:26;15.60;99.90
51922;DHT22;37948;53.260;6.394;2022-07-10T10:15:56;15.60;99.90
51922;DHT22;37948;53.260;6.394;2022-07-10T10:18:25;15.60;99.90
51922;DHT22;37948;53.260;6.394;2022-07-10T10:20:53;15.60;99.90
51922;DHT22;37948;53.260;6.394;2022-07-10T10:23:21;15.60;99.90
51922;DHT22;37948;53.260;6.394;2022-07-10T10:25:48;15.70;99.90
51922;DHT22;37948;53.260;6.394;2022-07-10T10:28:16;15.80;99.90
51922;DHT22;37948;53.260;6.394;2022-07-10T10:30:45;15.70;99.90
51922;DHT22;37948;53.260;6.394;2022-07-10T10:36:00;15.80;99.90
51922;DHT22;37948;53.260;6.394;2022-07-10T10:41:26;15.80;99.90
51922;DHT22;37948;53.260;6.394;2022-07-10T10:47:15;15.80;99.90
51922;DHT22;37948;53.260;6.394;2022-07-10T10:49:25;15.80;99.90
51922;DHT22;37948;53.260;6.394;2022-07-10T10:52:04;15.90;99.90
51922;DHT22;37948;53.260;6.394;2022-07-10T11:00:02;16.20;99.90
51922;DHT22;37948;53.260;6.394;2022-07-10T11:02:33;16.30;99.90
51922;DHT22;37948;53.260;6.394;2022-07-10T11:07:57;16.40;99.90
51922;DHT22;37948;53.260;6.394;2022-07-10T11:10:50;16.30;99.90
51922;DHT22;37948;53.260;6.394;2022-07-10T11:13:18;16.20;99.90
51922;DHT22;37948;53.260;6.394;2022-07-10T11:15:45;16.20;99.90
51922;DHT22;37948;53.260;6.394;2022-07-10T11:18:13;16.20;99.90
51922;DHT22;37948;53.260;6.394;2022-07-10T11:20:41;16.20;99.90
51922;DHT22;37948;53.260;6.394;2022-07-10T11:23:29;16.30;99.90
51922;DHT22;37948;53.260;6.394;2022-07-10T11:26:05;16.40;99.90
51922;DHT22;37948;53.260;6.394;2022-07-10T11:28:53;16.40;99.90
51922;DHT22;37948;53.260;6.394;2022-07-10T11:31:21;16.40;99.90
51922;DHT22;37948;53.260;6.394;2022-07-10T11:33:48;16.40;99.90
51922;DHT22;37948;53.260;6.394;2022-07-10T11:36:17;16.40;99.90
51922;DHT22;37948;53.260;6.394;2022-07-10T11:38:44;16.40;99.90
51922;DHT22;37948;53.260;6.394;2022-07-10T11:41:19;16.40;99.90
51922;DHT22;37948;53.260;6.394;2022-07-10T11:44:04;16.40;99.90
51922;DHT22;37948;53.260;6.394;2022-07-10T11:46:31;16.40;99.90
51922;DHT22;37948;53.260;6.394;2022-07-10T11:48:58;16.40;99.90
51922;DHT22;37948;53.260;6.394;2022-07-10T11:51:28;16.40;99.90
51922;DHT22;37948;53.260;6.394;2022-07-10T11:54:02;16.40;99.90
51922;DHT22;37948;53.260;6.394;2022-07-10T11:56:30;16.50;99.90
51922;DHT22;37948;53.260;6.394;2022-07-10T11:59:00;16.60;99.90
51922;DHT22;37948;53.260;6.394;2022-07-10T12:01:27;16.60;99.90
51922;DHT22;37948;53.260;6.394;2022-07-10T12:04:05;16.70;99.90
51922;DHT22;37948;53.260;6.394;2022-07-10T12:06:32;16.80;99.90
51922;DHT22;37948;53.260;6.394;2022-07-10T12:09:07;16.80;99.90
51922;DHT22;37948;53.260;6.394;2022-07-10T12:11:33;16.90;99.90
51922;DHT22;37948;53.260;6.394;2022-07-10T12:14:28;17.00;99.90
51922;DHT22;37948;53.260;6.394;2022-07-10T12:16:55;17.00;99.90
51922;DHT22;37948;53.260;6.394;2022-07-10T12:19:29;17.00;99.90
51922;DHT22;37948;53.260;6.394;2022-07-10T12:21:57;16.90;99.90
51922;DHT22;37948;53.260;6.394;2022-07-10T12:24:24;16.90;99.90
51922;DHT22;37948;53.260;6.394;2022-07-10T12:26:50;16.80;99.90
51922;DHT22;37948;53.260;6.394;2022-07-10T12:29:23;16.70;99.90
51922;DHT22;37948;53.260;6.394;2022-07-10T12:31:55;16.70;99.90
51922;DHT22;37948;53.260;6.394;2022-07-10T12:34:35;16.50;99.90
51922;DHT22;37948;53.260;6.394;2022-07-10T12:37:09;16.50;99.90
51922;DHT22;37948;53.260;6.394;2022-07-10T12:39:57;16.50;99.90
51922;DHT22;37948;53.260;6.394;2022-07-10T12:42:31;16.50;99.90
51922;DHT22;37948;53.260;6.394;2022-07-10T12:45:13;16.50;99.90
51922;DHT22;37948;53.260;6.394;2022-07-10T12:47:47;16.40;99.90
51922;DHT22;37948;53.260;6.394;2022-07-10T12:50:14;16.30;99.90
51922;DHT22;37948;53.260;6.394;2022-07-10T12:52:41;16.30;99.90
51922;DHT22;37948;53.260;6.394;2022-07-10T12:55:11;16.30;99.90
51922;DHT22;37948;53.260;6.394;2022-07-10T13:00:15;16.20;99.90
51922;DHT22;37948;53.260;6.394;2022-07-10T13:02:41;16.30;99.90
51922;DHT22;37948;53.260;6.394;2022-07-10T13:05:07;16.30;99.90
51922;DHT22;37948;53.260;6.394;2022-07-10T13:07:35;16.40;99.90
51922;DHT22;37948;53.260;6.394;2022-07-10T13:10:03;16.50;99.90
51922;DHT22;37948;53.260;6.394;2022-07-10T13:12:28;16.50;99.90
51922;DHT22;37948;53.260;6.394;2022-07-10T13:14:54;16.50;99.90
51922;DHT22;37948;53.260;6.394;2022-07-10T13:17:20;16.60;99.90
51922;DHT22;37948;53.260;6.394;2022-07-10T13:19:46;16.70;99.90
51922;DHT22;37948;53.260;6.394;2022-07-10T13:22:12;16.80;99.90
51922;DHT22;37948;53.260;6.394;2022-07-10T13:24:37;16.80;99.90
51922;DHT22;37948;53.260;6.394;2022-07-10T13:27:03;16.90;99.90
51922;DHT22;37948;53.260;6.394;2022-07-10T13:29:29;16.80;99.90
51922;DHT22;37948;53.260;6.394;2022-07-10T13:31:55;16.80;99.90
51922;DHT22;37948;53.260;6.394;2022-07-10T13:34:20;16.80;99.90
51922;DHT22;37948;53.260;6.394;2022-07-10T13:36:46;16.80;99.90
51922;DHT22;37948;53.260;6.394;2022-07-10T13:39:11;16.80;99.90
51922;DHT22;37948;53.260;6.394;2022-07-10T13:41:37;16.80;99.90
51922;DHT22;37948;53.260;6.394;2022-07-10T13:44:03;16.80;99.90
51922;DHT22;37948;53.260;6.394;2022-07-10T13:46:28;16.90;99.90
51922;DHT22;37948;53.260;6.394;2022-07-10T13:48:54;17.10;99.90
51922;DHT22;37948;53.260;6.394;2022-07-10T13:51:19;17.20;99.90
51922;DHT22;37948;53.260;6.394;2022-07-10T13:53:45;17.30;99.90
51922;DHT22;37948;53.260;6.394;2022-07-10T13:56:11;17.40;99.90
51922;DHT22;37948;53.260;6.394;2022-07-10T13:58:37;17.40;99.90
51922;DHT22;37948;53.260;6.394;2022-07-10T14:01:03;17.40;99.90
51922;DHT22;37948;53.260;6.394;2022-07-10T14:03:30;17.40;99.90
51922;DHT22;37948;53.260;6.394;2022-07-10T14:05:57;17.50;99.90
51922;DHT22;37948;53.260;6.394;2022-07-10T14:08:23;17.50;99.90
51922;DHT22;37948;53.260;6.394;2022-07-10T14:10:49;17.60;99.90
51922;DHT22;37948;53.260;6.394;2022-07-10T14:13:14;17.60;99.90
51922;DHT22;37948;53.260;6.394;2022-07-10T14:15:40;17.70;99.90
51922;DHT22;37948;53.260;6.394;2022-07-10T14:18:06;17.70;99.90
51922;DHT22;37948;53.260;6.394;2022-07-10T14:20:32;17.70;99.90
51922;DHT22;37948;53.260;6.394;2022-07-10T14:23:16;17.70;99.90
51922;DHT22;37948;53.260;6.394;2022-07-10T14:25:42;17.70;99.90
51922;DHT22;37948;53.260;6.394;2022-07-10T14:28:07;17.70;99.90
51922;DHT22;37948;53.260;6.394;2022-07-10T14:30:33;17.70;99.90
51922;DHT22;37948;53.260;6.394;2022-07-10T14:32:59;17.80;99.90
51922;DHT22;37948;53.260;6.394;2022-07-10T14:35:24;17.70;99.90
51922;DHT22;37948;53.260;6.394;2022-07-10T14:37:50;17.70;99.90
51922;DHT22;37948;53.260;6.394;2022-07-10T14:40:15;17.70;99.90
51922;DHT22;37948;53.260;6.394;2022-07-10T14:42:41;17.70;99.90
51922;DHT22;37948;53.260;6.394;2022-07-10T14:45:07;17.70;99.90
51922;DHT22;37948;53.260;6.394;2022-07-10T14:47:33;17.70;99.90
51922;DHT22;37948;53.260;6.394;2022-07-10T14:49:59;17.70;99.90
51922;DHT22;37948;53.260;6.394;2022-07-10T14:52:24;17.70;99.90
51922;DHT22;37948;53.260;6.394;2022-07-10T14:54:53;17.70;99.90
51922;DHT22;37948;53.260;6.394;2022-07-10T14:57:18;17.70;99.90
51922;DHT22;37948;53.260;6.394;2022-07-10T14:59:44;17.80;99.90
51922;DHT22;37948;53.260;6.394;2022-07-10T15:02:10;17.80;99.90
51922;DHT22;37948;53.260;6.394;2022-07-10T15:04:35;17.80;99.90
51922;DHT22;37948;53.260;6.394;2022-07-10T15:07:01;17.90;99.90
51922;DHT22;37948;53.260;6.394;2022-07-10T15:09:26;17.90;99.90
51922;DHT22;37948;53.260;6.394;2022-07-10T15:11:52;18.00;99.90
51922;DHT22;37948;53.260;6.394;2022-07-10T15:14:19;18.00;99.90
51922;DHT22;37948;53.260;6.394;2022-07-10T15:16:45;18.00;99.90
51922;DHT22;37948;53.260;6.394;2022-07-10T15:19:10;18.00;99.90
51922;DHT22;37948;53.260;6.394;2022-07-10T15:21:36;18.00;99.90
51922;DHT22;37948;53.260;6.394;2022-07-10T15:24:02;18.00;99.90
51922;DHT22;37948;53.260;6.394;2022-07-10T15:26:27;18.00;99.90
51922;DHT22;37948;53.260;6.394;2022-07-10T15:28:53;18.00;99.90
51922;DHT22;37948;53.260;6.394;2022-07-10T15:31:20;18.00;99.90
51922;DHT22;37948;53.260;6.394;2022-07-10T15:33:46;18.00;99.90
51922;DHT22;37948;53.260;6.394;2022-07-10T15:36:12;18.00;99.90
51922;DHT22;37948;53.260;6.394;2022-07-10T15:38:38;18.00;99.90
51922;DHT22;37948;53.260;6.394;2022-07-10T15:41:04;18.10;99.90
51922;DHT22;37948;53.260;6.394;2022-07-10T15:43:30;18.00;99.90
51922;DHT22;37948;53.260;6.394;2022-07-10T15:45:55;18.10;99.90
51922;DHT22;37948;53.260;6.394;2022-07-10T15:48:21;18.10;99.90
51922;DHT22;37948;53.260;6.394;2022-07-10T15:50:47;18.10;99.90
51922;DHT22;37948;53.260;6.394;2022-07-10T15:53:12;18.10;99.90
51922;DHT22;37948;53.260;6.394;2022-07-10T15:55:38;18.10;99.90
51922;DHT22;37948;53.260;6.394;2022-07-10T15:58:04;18.10;99.90